Time;durP1;ratioP1;P1;durP2;ratioP2;P2;SDS_P1;SDS_P2;PMS_P1;PMS_P2;Temp;Humidity;BMP_temperature;BMP_pressure;BME280_temperature;BME280_humidity;BME280_pressure;Samples;Min_cycle;Max_cycle;Signal;HPM_P1;HPM_P2
2023/08/26 04:01:05;;;;;;;8.13;6.30;;;18.10;99.90;;;;;;6094661;23;20499;-68
2023/08/26 04:03:31;;;;;;;11.20;7.70;;;18.10;99.90;;;;;;6153617;23;20808;-70
2023/08/26 04:05:59;;;;;;;11.97;7.47;;;18.10;99.90;;;;;;6154483;23;20490;-68
2023/08/26 04:08:26;;;;;;;14.00;9.60;;;18.00;99.90;;;;;;6152218;23;20477;-68
2023/08/26 04:10:56;;;;;;;14.30;9.50;;;18.10;99.90;;;;;;6154818;23;20544;-68
2023/08/26 04:13:24;;;;;;;20.33;9.60;;;18.10;99.90;;;;;;6155694;23;20421;-68
2023/08/26 04:15:53;;;;;;;15.30;8.90;;;18.10;99.90;;;;;;6155346;23;20901;-69
2023/08/26 04:18:21;;;;;;;23.57;10.47;;;18.10;99.90;;;;;;6155227;23;20803;-69
2023/08/26 04:20:48;;;;;;;17.93;11.27;;;18.10;99.90;;;;;;6155516;23;20440;-69
2023/08/26 04:23:14;;;;;;;12.33;7.67;;;18.10;99.90;;;;;;6155436;23;20423;-67
2023/08/26 04:25:42;;;;;;;15.93;9.83;;;18.10;99.90;;;;;;6155320;23;20418;-69
2023/08/26 04:28:09;;;;;;;20.53;10.33;;;18.10;99.90;;;;;;6154994;23;20426;-69
2023/08/26 04:30:37;;;;;;;20.87;10.63;;;18.20;99.90;;;;;;6154754;23;20442;-69
2023/08/26 04:33:04;;;;;;;17.80;10.80;;;18.20;99.90;;;;;;6153452;23;20475;-69
2023/08/26 04:35:32;;;;;;;19.33;11.60;;;18.20;99.90;;;;;;6152345;23;20480;-68
2023/08/26 04:37:59;;;;;;;27.97;12.53;;;18.20;99.90;;;;;;6151714;23;20430;-69
2023/08/26 04:40:26;;;;;;;19.93;11.20;;;18.20;99.90;;;;;;6151947;23;20444;-67
2023/08/26 04:42:53;;;;;;;22.37;11.70;;;18.30;99.90;;;;;;6153921;23;21080;-69
2023/08/26 04:45:20;;;;;;;21.53;10.73;;;18.30;99.90;;;;;;6152246;23;20894;-68
2023/08/26 04:47:47;;;;;;;15.20;10.17;;;18.30;99.90;;;;;;6152518;23;20448;-69
2023/08/26 04:50:14;;;;;;;20.53;11.37;;;18.40;99.90;;;;;;6151722;23;21274;-68
2023/08/26 04:52:43;;;;;;;17.40;10.50;;;18.40;99.90;;;;;;6155310;23;20451;-69
2023/08/26 04:55:10;;;;;;;17.07;9.77;;;18.40;99.90;;;;;;6154513;23;20431;-69
2023/08/26 04:57:37;;;;;;;13.83;9.13;;;18.50;99.90;;;;;;6150873;23;20486;-68
2023/08/26 05:00:08;;;;;;;22.10;11.03;;;18.50;99.90;;;;;;6151365;23;20426;-68
2023/08/26 05:02:35;;;;;;;24.37;10.57;;;18.60;99.90;;;;;;6151111;23;20449;-68
2023/08/26 05:05:02;;;;;;;20.80;10.07;;;18.60;99.90;;;;;;6151148;23;20428;-69
2023/08/26 05:07:29;;;;;;;24.50;11.40;;;18.60;99.90;;;;;;6152082;23;20426;-68
2023/08/26 05:09:57;;;;;;;29.40;12.40;;;18.70;99.90;;;;;;6154205;23;20427;-69
2023/08/26 05:12:24;;;;;;;19.37;11.70;;;18.70;99.90;;;;;;6155091;23;20457;-69
2023/08/26 05:14:50;;;;;;;21.40;11.47;;;18.70;99.90;;;;;;6155412;23;20429;-68
2023/08/26 05:17:17;;;;;;;21.10;11.87;;;18.70;99.90;;;;;;6153896;23;20907;-69
2023/08/26 05:19:44;;;;;;;14.60;9.07;;;18.80;99.90;;;;;;6154367;23;20426;-69
2023/08/26 05:22:10;;;;;;;21.43;10.77;;;18.80;99.90;;;;;;6154475;23;20961;-68
2023/08/26 05:24:37;;;;;;;16.83;9.77;;;18.80;99.90;;;;;;6154902;23;20420;-69
2023/08/26 05:27:05;;;;;;;19.90;11.00;;;18.90;99.90;;;;;;6155239;23;20429;-69
2023/08/26 05:29:32;;;;;;;19.07;11.40;;;18.90;99.90;;;;;;6154506;23;20430;-69
2023/08/26 05:31:59;;;;;;;15.63;9.40;;;18.90;99.90;;;;;;6154630;23;20779;-68
2023/08/26 05:34:26;;;;;;;24.07;12.53;;;18.90;99.90;;;;;;6151839;23;20426;-68
2023/08/26 05:36:52;;;;;;;16.50;10.37;;;19.00;99.90;;;;;;6151227;23;20432;-68
2023/08/26 05:39:19;;;;;;;19.97;10.67;;;19.00;99.90;;;;;;6150023;23;20432;-69
2023/08/26 05:41:46;;;;;;;15.07;9.30;;;19.00;99.90;;;;;;6151179;23;20442;-69
2023/08/26 05:44:14;;;;;;;20.17;10.87;;;19.10;99.90;;;;;;6151730;23;20425;-68
2023/08/26 05:46:40;;;;;;;16.47;10.90;;;19.10;99.90;;;;;;6153477;23;20425;-69
2023/08/26 05:49:07;;;;;;;18.70;11.67;;;19.10;99.90;;;;;;6154277;23;20447;-68
2023/08/26 05:51:34;;;;;;;16.23;9.57;;;19.10;99.90;;;;;;6154526;23;20453;-69
2023/08/26 05:54:01;;;;;;;14.07;9.50;;;19.10;99.90;;;;;;6154268;23;20422;-69
2023/08/26 05:56:27;;;;;;;12.00;8.20;;;19.20;99.90;;;;;;6153664;23;20422;-68
2023/08/26 05:58:54;;;;;;;19.17;10.57;;;19.20;99.90;;;;;;6153837;23;20421;-68
2023/08/26 06:01:22;;;;;;;14.33;8.80;;;19.20;99.90;;;;;;6153871;23;20456;-69
2023/08/26 06:03:49;;;;;;;20.87;10.03;;;19.20;99.90;;;;;;6153677;23;20736;-69
2023/08/26 06:06:15;;;;;;;15.10;9.23;;;19.30;99.90;;;;;;6154474;23;20445;-68
2023/08/26 06:08:42;;;;;;;16.23;10.30;;;19.40;99.90;;;;;;6153829;23;20423;-68
2023/08/26 06:11:09;;;;;;;16.60;10.27;;;19.60;99.90;;;;;;6152464;23;20442;-69
2023/08/26 06:13:36;;;;;;;15.57;10.77;;;19.80;99.90;;;;;;6153263;23;20423;-68
2023/08/26 06:16:02;;;;;;;15.83;10.17;;;19.90;99.90;;;;;;6153774;23;20943;-69
2023/08/26 06:18:30;;;;;;;11.87;9.40;;;19.90;99.90;;;;;;6154222;23;20422;-68
2023/08/26 06:20:57;;;;;;;15.40;8.90;;;20.00;99.90;;;;;;6153215;23;20446;-68
2023/08/26 06:23:24;;;;;;;12.60;8.53;;;20.10;99.90;;;;;;6154446;23;20422;-69
2023/08/26 06:25:51;;;;;;;11.80;9.57;;;20.30;99.90;;;;;;6153556;23;20425;-68
2023/08/26 06:28:18;;;;;;;10.80;8.30;;;20.20;99.90;;;;;;6153962;23;20420;-68
2023/08/26 06:30:45;;;;;;;14.60;9.50;;;20.20;99.90;;;;;;6153208;23;20446;-69
2023/08/26 06:33:12;;;;;;;10.73;8.20;;;20.40;99.90;;;;;;6152771;23;20451;-69
2023/08/26 06:35:40;;;;;;;9.23;8.23;;;20.50;99.90;;;;;;6153578;23;20420;-69
2023/08/26 06:38:07;;;;;;;13.17;8.93;;;20.60;99.90;;;;;;6153724;23;20419;-68
2023/08/26 06:40:34;;;;;;;11.87;8.33;;;20.70;99.90;;;;;;6151982;23;20439;-69
2023/08/26 06:43:02;;;;;;;12.73;9.30;;;20.70;99.90;;;;;;6152572;23;20416;-69
2023/08/26 06:45:29;;;;;;;14.90;8.50;;;20.90;99.90;;;;;;6152477;23;20419;-69
2023/08/26 06:47:56;;;;;;;10.17;8.13;;;21.10;99.90;;;;;;6154221;23;20430;-69
2023/08/26 06:50:22;;;;;;;9.17;7.40;;;21.40;99.90;;;;;;6153614;23;20429;-69
2023/08/26 06:52:51;;;;;;;9.83;8.47;;;21.40;99.90;;;;;;6152733;23;20445;-68
2023/08/26 06:55:18;;;;;;;8.90;7.07;;;21.40;99.90;;;;;;6153730;23;20422;-69
2023/08/26 06:57:44;;;;;;;9.87;7.40;;;21.40;99.90;;;;;;6154185;23;20751;-70
2023/08/26 07:00:13;;;;;;;10.40;6.80;;;21.30;99.90;;;;;;6153478;23;20429;-70
2023/08/26 07:02:39;;;;;;;8.20;6.73;;;21.10;99.90;;;;;;6151299;23;20425;-69
2023/08/26 07:05:08;;;;;;;8.20;6.40;;;20.90;99.90;;;;;;6152246;23;20952;-69
2023/08/26 07:07:36;;;;;;;6.90;6.07;;;20.70;99.90;;;;;;6153879;23;20416;-71
2023/08/26 07:10:05;;;;;;;12.30;6.57;;;20.60;99.90;;;;;;6153429;23;20425;-69
2023/08/26 07:12:32;;;;;;;9.60;6.37;;;20.60;99.90;;;;;;6152575;23;20452;-69
2023/08/26 07:14:58;;;;;;;8.03;5.27;;;20.60;99.90;;;;;;6154147;23;20420;-69
2023/08/26 07:17:25;;;;;;;7.57;5.57;;;20.60;99.90;;;;;;6153327;23;20431;-72
2023/08/26 07:19:52;;;;;;;6.73;6.00;;;20.60;99.90;;;;;;6152336;23;20426;-69
2023/08/26 07:22:18;;;;;;;5.77;5.27;;;20.60;99.90;;;;;;6153838;23;20444;-69
2023/08/26 07:24:45;;;;;;;5.00;4.57;;;20.60;99.90;;;;;;6153098;23;20422;-69
2023/08/26 07:27:13;;;;;;;5.87;5.17;;;20.60;99.90;;;;;;6153781;23;20424;-70
2023/08/26 07:29:40;;;;;;;5.37;4.87;;;20.70;99.90;;;;;;6153157;23;20452;-69
2023/08/26 07:32:07;;;;;;;7.97;5.60;;;20.70;99.90;;;;;;6152109;23;20542;-70
2023/08/26 07:34:34;;;;;;;6.20;5.13;;;20.70;99.90;;;;;;6153178;23;20428;-69
2023/08/26 07:37:00;;;;;;;7.20;5.33;;;20.80;99.90;;;;;;6152822;23;20426;-69
2023/08/26 07:39:29;;;;;;;5.47;4.97;;;20.90;99.90;;;;;;6153675;23;20440;-69
2023/08/26 07:41:56;;;;;;;6.03;5.43;;;20.90;99.90;;;;;;6154301;23;20436;-69
2023/08/26 07:44:24;;;;;;;6.17;5.60;;;21.20;99.90;;;;;;6155255;23;20421;-69
2023/08/26 07:46:51;;;;;;;5.97;5.40;;;21.40;99.90;;;;;;6154645;23;20907;-70
2023/08/26 07:49:18;;;;;;;6.60;5.97;;;21.50;99.90;;;;;;6155322;23;20421;-70
2023/08/26 07:51:45;;;;;;;7.33;5.20;;;21.60;99.90;;;;;;6153794;23;20464;-68
2023/08/26 07:54:11;;;;;;;5.17;4.50;;;21.60;99.90;;;;;;6162646;23;20429;-70
2023/08/26 07:56:38;;;;;;;4.20;3.97;;;21.60;99.90;;;;;;6154488;23;20426;-73
2023/08/26 07:59:05;;;;;;;4.03;3.73;;;21.50;99.90;;;;;;6155869;23;20421;-70
2023/08/26 08:01:33;;;;;;;5.70;5.20;;;21.40;99.90;;;;;;6155565;23;20477;-69
2023/08/26 08:03:59;;;;;;;4.47;4.07;;;21.20;99.90;;;;;;6156047;23;20422;-69
2023/08/26 08:06:26;;;;;;;4.77;4.33;;;21.10;99.90;;;;;;6154169;23;20421;-69
2023/08/26 08:08:53;;;;;;;5.10;4.60;;;20.90;99.90;;;;;;6164795;23;20445;-69
2023/08/26 08:11:19;;;;;;;5.50;5.00;;;20.80;99.90;;;;;;6154970;23;20772;-69
2023/08/26 08:13:46;;;;;;;5.90;5.40;;;20.80;99.90;;;;;;6154502;23;20463;-69
2023/08/26 08:16:13;;;;;;;4.73;4.40;;;20.70;99.90;;;;;;6154291;23;20919;-68
2023/08/26 08:18:41;;;;;;;4.57;4.17;;;20.80;99.90;;;;;;6154992;23;20428;-69
2023/08/26 08:21:08;;;;;;;5.30;4.90;;;20.80;99.90;;;;;;6155203;23;20444;-68
2023/08/26 08:23:35;;;;;;;5.17;4.83;;;20.70;99.90;;;;;;6153925;23;20441;-69
2023/08/26 08:26:03;;;;;;;8.63;4.97;;;20.70;99.90;;;;;;6154974;23;20426;-69
2023/08/26 08:28:30;;;;;;;5.03;4.67;;;20.80;99.90;;;;;;6155077;23;20445;-69
2023/08/26 08:30:56;;;;;;;5.57;5.07;;;21.00;99.90;;;;;;6154752;23;20439;-69
2023/08/26 08:33:23;;;;;;;5.30;4.90;;;21.00;99.90;;;;;;6154688;23;20466;-69
2023/08/26 08:35:51;;;;;;;5.23;4.77;;;21.10;99.90;;;;;;6153514;23;21312;-71
2023/08/26 08:38:18;;;;;;;5.40;4.50;;;21.30;99.90;;;;;;6154720;23;20511;-70
2023/08/26 08:40:45;;;;;;;6.10;5.60;;;21.50;99.90;;;;;;6153550;23;20463;-71
2023/08/26 08:43:14;;;;;;;5.13;4.73;;;21.50;99.90;;;;;;6152910;23;20449;-69
2023/08/26 08:45:42;;;;;;;6.60;4.97;;;21.60;99.90;;;;;;6153710;23;20424;-70
2023/08/26 08:48:09;;;;;;;5.40;4.70;;;21.60;99.90;;;;;;6154773;23;20423;-70
2023/08/26 08:50:35;;;;;;;5.83;5.33;;;21.40;99.90;;;;;;6153762;23;20439;-69
2023/08/26 08:53:04;;;;;;;6.57;5.80;;;21.20;99.90;;;;;;6153125;23;20453;-69
2023/08/26 08:55:32;;;;;;;7.00;5.87;;;20.90;99.90;;;;;;6153328;23;20421;-68
2023/08/26 08:58:01;;;;;;;4.00;3.80;;;20.40;99.90;;;;;;6153469;23;20915;-69
2023/08/26 09:00:28;;;;;;;4.53;4.20;;;19.70;99.90;;;;;;6153617;23;20426;-69
2023/08/26 09:02:58;;;;;;;5.90;4.43;;;19.20;99.90;;;;;;6153909;23;20419;-69
2023/08/26 09:05:25;;;;;;;5.03;4.63;;;18.90;99.90;;;;;;6153597;23;20781;-68
2023/08/26 09:07:53;;;;;;;6.03;5.07;;;18.80;99.90;;;;;;6154158;23;20425;-69
2023/08/26 09:10:21;;;;;;;6.90;4.70;;;18.90;99.90;;;;;;6153447;23;20424;-68
2023/08/26 09:12:50;;;;;;;5.90;5.40;;;19.20;99.90;;;;;;6153774;23;20458;-69
2023/08/26 09:15:17;;;;;;;5.93;4.80;;;19.40;99.90;;;;;;6153728;23;20426;-69
2023/08/26 09:17:46;;;;;;;7.87;4.93;;;19.40;99.90;;;;;;6153572;23;20471;-69
2023/08/26 09:20:12;;;;;;;6.17;5.60;;;19.40;99.90;;;;;;6152283;23;20421;-69
2023/08/26 09:22:39;;;;;;;5.87;5.37;;;19.50;99.90;;;;;;6151760;23;20479;-68
2023/08/26 09:25:06;;;;;;;7.07;5.23;;;19.60;99.90;;;;;;6154119;23;20452;-69
2023/08/26 09:27:41;;;;;;;6.17;4.77;;;19.70;99.90;;;;;;6153458;23;20760;-68
2023/08/26 09:30:09;;;;;;;5.23;4.83;;;19.70;99.90;;;;;;6153561;23;20428;-69
2023/08/26 09:32:37;;;;;;;6.47;5.43;;;19.70;99.90;;;;;;6153387;23;20541;-69
2023/08/26 09:35:13;;;;;;;5.00;4.67;;;19.50;99.90;;;;;;6153607;23;20798;-69
2023/08/26 09:37:41;;;;;;;5.30;4.80;;;19.20;99.90;;;;;;6153837;23;20407;-68
2023/08/26 09:40:12;;;;;;;4.17;3.87;;;18.90;99.90;;;;;;6152117;23;20460;-69
2023/08/26 09:42:40;;;;;;;3.87;3.67;;;18.80;99.90;;;;;;6153629;23;20406;-68
2023/08/26 09:45:08;;;;;;;4.40;3.53;;;18.90;99.90;;;;;;6153253;23;21162;-69
2023/08/26 09:47:37;;;;;;;4.07;3.77;;;18.90;99.90;;;;;;6153936;23;20484;-69
2023/08/26 09:50:04;;;;;;;5.27;4.20;;;19.10;99.90;;;;;;6152538;23;20432;-68
2023/08/26 09:52:31;;;;;;;3.73;3.50;;;19.30;99.90;;;;;;6153476;23;20462;-69
2023/08/26 09:54:58;;;;;;;4.33;4.03;;;19.40;99.90;;;;;;6153068;23;20433;-68
2023/08/26 09:57:25;;;;;;;4.40;4.00;;;19.40;99.90;;;;;;6153429;23;20422;-68
2023/08/26 09:59:53;;;;;;;3.50;3.30;;;19.50;99.90;;;;;;6152930;23;20426;-68
2023/08/26 10:02:22;;;;;;;3.43;3.17;;;19.50;99.90;;;;;;6152475;23;20449;-68
2023/08/26 10:04:52;;;;;;;3.13;2.93;;;19.50;99.90;;;;;;6152697;23;20501;-68
2023/08/26 10:07:20;;;;;;;2.80;2.60;;;19.50;99.90;;;;;;6153214;23;20409;-68
2023/08/26 10:09:52;;;;;;;3.00;2.80;;;19.50;99.90;;;;;;6152763;23;20425;-68
2023/08/26 10:12:29;;;;;;;2.33;2.23;;;19.50;99.90;;;;;;6152755;23;20452;-69
2023/08/26 10:15:01;;;;;;;2.63;2.53;;;19.50;99.90;;;;;;6153349;23;20398;-68
2023/08/26 10:17:31;;;;;;;2.83;2.60;;;19.70;99.90;;;;;;6161606;23;20407;-68
2023/08/26 10:19:59;;;;;;;1.93;1.93;;;19.70;99.90;;;;;;6153364;23;20414;-70
2023/08/26 10:22:25;;;;;;;2.10;2.00;;;19.80;99.90;;;;;;6153442;23;20450;-68
2023/08/26 10:24:53;;;;;;;1.60;1.53;;;19.80;99.90;;;;;;6153819;23;20419;-68
2023/08/26 10:27:20;;;;;;;1.67;1.57;;;19.80;99.90;;;;;;6153385;23;20419;-69
2023/08/26 10:29:48;;;;;;;2.40;2.20;;;19.90;99.90;;;;;;6151694;23;20424;-69
2023/08/26 10:32:18;;;;;;;2.00;2.00;;;20.00;99.90;;;;;;6152819;23;20439;-69
2023/08/26 10:34:53;;;;;;;1.80;1.80;;;20.00;99.90;;;;;;6153890;23;20442;-69
2023/08/26 10:37:20;;;;;;;1.20;1.20;;;20.10;99.90;;;;;;6153529;23;20892;-70
2023/08/26 10:39:47;;;;;;;2.00;1.90;;;20.20;99.90;;;;;;6152852;23;20420;-70
2023/08/26 10:42:16;;;;;;;1.70;1.60;;;20.30;99.90;;;;;;6151659;23;20447;-70
2023/08/26 10:44:45;;;;;;;1.63;1.63;;;20.30;99.90;;;;;;6153022;23;20443;-70
2023/08/26 10:47:12;;;;;;;1.50;1.50;;;20.50;99.90;;;;;;6148959;23;20714;-69
2023/08/26 10:49:40;;;;;;;1.90;1.90;;;20.50;99.90;;;;;;6150995;23;20407;-72
2023/08/26 10:52:16;;;;;;;1.87;1.77;;;20.50;99.90;;;;;;6152841;23;20448;-71
2023/08/26 10:54:43;;;;;;;1.33;1.33;;;20.50;99.90;;;;;;6153423;23;20431;-70
2023/08/26 10:57:10;;;;;;;5.40;1.13;;;20.60;99.90;;;;;;6152589;23;20420;-71
2023/08/26 10:59:38;;;;;;;1.20;1.20;;;20.50;99.90;;;;;;6151602;23;20428;-71
2023/08/26 11:02:08;;;;;;;1.87;1.77;;;20.60;99.90;;;;;;6149348;23;20447;-72
2023/08/26 11:04:36;;;;;;;1.17;1.17;;;20.60;99.90;;;;;;6153152;23;20414;-72
2023/08/26 11:07:05;;;;;;;1.63;1.53;;;20.60;99.90;;;;;;6152011;23;20418;-72
2023/08/26 11:09:31;;;;;;;1.80;1.80;;;20.80;99.90;;;;;;6150511;23;20952;-71
2023/08/26 11:11:58;;;;;;;1.90;1.43;;;20.80;99.90;;;;;;6149844;23;20448;-70
2023/08/26 11:14:34;;;;;;;0.83;0.83;;;20.70;99.90;;;;;;6151614;23;20973;-71
2023/08/26 11:17:04;;;;;;;2.13;1.83;;;20.70;99.90;;;;;;6151951;23;20688;-71
2023/08/26 11:19:34;;;;;;;1.60;1.60;;;20.80;99.90;;;;;;6153289;23;20411;-71
2023/08/26 11:22:01;;;;;;;1.50;1.50;;;20.70;99.90;;;;;;6153437;23;20534;-71
2023/08/26 11:24:32;;;;;;;1.60;1.60;;;20.60;99.90;;;;;;6154093;23;20419;-75
2023/08/26 11:26:59;;;;;;;1.80;1.80;;;20.60;99.90;;;;;;6153494;23;20419;-73
2023/08/26 11:29:25;;;;;;;2.07;1.97;;;20.50;99.90;;;;;;6153815;23;20480;-70
2023/08/26 11:31:52;;;;;;;2.20;2.10;;;20.30;99.90;;;;;;6153402;23;20442;-71
2023/08/26 11:34:23;;;;;;;3.67;2.90;;;20.20;99.90;;;;;;6154778;23;20449;-72
2023/08/26 11:36:52;;;;;;;5.00;2.53;;;20.20;99.90;;;;;;6154961;23;20739;-73
2023/08/26 11:39:19;;;;;;;3.47;3.17;;;20.20;99.90;;;;;;6154057;23;20425;-72
2023/08/26 11:41:48;;;;;;;3.13;2.83;;;20.30;99.90;;;;;;6153846;23;20458;-72
2023/08/26 11:44:15;;;;;;;2.60;2.50;;;20.40;99.90;;;;;;6154442;23;20414;-71
2023/08/26 11:46:42;;;;;;;3.20;3.00;;;20.60;99.90;;;;;;6154363;23;20418;-72
2023/08/26 11:49:10;;;;;;;3.63;3.43;;;20.70;99.90;;;;;;6154097;23;20423;-72
2023/08/26 11:51:39;;;;;;;6.10;3.80;;;20.70;99.90;;;;;;6154149;23;20446;-71
2023/08/26 11:54:06;;;;;;;4.00;3.50;;;20.70;99.90;;;;;;6154813;23;20463;-72
2023/08/26 11:56:32;;;;;;;3.57;3.27;;;20.70;99.90;;;;;;6154240;23;20430;-72
2023/08/26 11:59:00;;;;;;;3.67;3.57;;;20.60;99.90;;;;;;6154040;23;20418;-71
2023/08/26 12:01:27;;;;;;;3.60;3.30;;;20.50;99.90;;;;;;6152900;23;20452;-71
2023/08/26 12:03:55;;;;;;;3.80;3.60;;;20.40;99.90;;;;;;6154311;23;20442;-72
2023/08/26 12:06:22;;;;;;;3.73;3.50;;;20.40;99.90;;;;;;6153791;23;20519;-71
2023/08/26 12:08:52;;;;;;;3.60;3.40;;;20.40;99.90;;;;;;6153575;23;20557;-70
2023/08/26 12:11:20;;;;;;;3.50;3.40;;;20.40;99.90;;;;;;6153007;23;20452;-71
2023/08/26 12:13:46;;;;;;;4.80;4.40;;;20.40;99.90;;;;;;6153699;23;20533;-71
2023/08/26 12:16:15;;;;;;;3.77;3.60;;;20.50;99.90;;;;;;6153774;23;20699;-71
2023/08/26 12:18:42;;;;;;;3.23;3.03;;;20.50;99.90;;;;;;6153846;23;20446;-71
2023/08/26 12:21:08;;;;;;;3.10;3.00;;;20.70;99.90;;;;;;6153627;23;20446;-71
2023/08/26 12:23:37;;;;;;;3.20;3.00;;;20.60;99.90;;;;;;6153405;23;20425;-71
2023/08/26 12:26:11;;;;;;;4.60;2.90;;;20.50;99.90;;;;;;6154088;23;20444;-71
2023/08/26 12:28:40;;;;;;;3.53;3.33;;;20.50;99.90;;;;;;6153485;23;20402;-70
2023/08/26 12:31:07;;;;;;;2.67;2.47;;;20.50;99.90;;;;;;6153733;23;20439;-70
2023/08/26 12:33:35;;;;;;;2.53;2.43;;;20.50;99.90;;;;;;6153484;23;20823;-71
2023/08/26 12:36:02;;;;;;;2.03;2.03;;;20.50;99.90;;;;;;6153849;23;20426;-70
2023/08/26 12:38:28;;;;;;;3.73;2.63;;;20.70;99.90;;;;;;6154448;23;20421;-70
2023/08/26 12:40:58;;;;;;;3.70;3.03;;;20.70;99.90;;;;;;6152747;23;20447;-70
2023/08/26 12:43:24;;;;;;;2.73;2.53;;;20.80;99.90;;;;;;6152244;23;20419;-70
2023/08/26 12:45:51;;;;;;;2.60;2.47;;;20.90;99.90;;;;;;6153301;23;20909;-70
2023/08/26 12:48:18;;;;;;;2.77;2.70;;;21.00;99.90;;;;;;6153184;23;20510;-70
2023/08/26 12:50:46;;;;;;;3.40;3.10;;;21.00;99.90;;;;;;6152522;23;20447;-70
2023/08/26 12:53:13;;;;;;;2.77;2.60;;;20.90;99.90;;;;;;6153731;23;20430;-71
2023/08/26 12:55:40;;;;;;;3.50;2.80;;;20.90;99.90;;;;;;6153357;23;20419;-70
2023/08/26 12:58:07;;;;;;;2.80;2.70;;;21.00;99.90;;;;;;6153885;23;20423;-70
2023/08/26 13:00:34;;;;;;;3.27;3.17;;;21.00;99.90;;;;;;6151318;23;20419;-70
2023/08/26 13:03:00;;;;;;;2.70;2.60;;;20.90;99.90;;;;;;6152948;23;20478;-70
2023/08/26 13:05:27;;;;;;;5.47;2.87;;;20.90;99.90;;;;;;6153364;23;20419;-70
2023/08/26 13:07:55;;;;;;;2.30;2.20;;;20.80;99.90;;;;;;6152689;23;20426;-70
2023/08/26 13:10:22;;;;;;;2.53;2.43;;;20.80;99.90;;;;;;6152677;23;20420;-70
2023/08/26 13:12:49;;;;;;;2.50;2.40;;;20.90;99.90;;;;;;6152629;23;20815;-70
2023/08/26 13:15:15;;;;;;;2.63;2.43;;;21.00;99.90;;;;;;6153698;23;20460;-70
2023/08/26 13:17:43;;;;;;;2.20;2.10;;;21.10;99.90;;;;;;6153249;23;20422;-70
2023/08/26 13:20:11;;;;;;;2.73;2.50;;;21.20;99.90;;;;;;6153226;23;20424;-70
2023/08/26 13:22:39;;;;;;;2.23;2.13;;;21.20;99.90;;;;;;6153233;23;20454;-71
2023/08/26 13:25:08;;;;;;;2.27;2.17;;;21.30;99.90;;;;;;6154076;23;20424;-70
2023/08/26 13:27:35;;;;;;;2.10;2.00;;;21.20;99.90;;;;;;6153772;23;20452;-70
2023/08/26 13:30:02;;;;;;;2.20;2.20;;;21.10;99.90;;;;;;6152285;23;20428;-70
2023/08/26 13:32:29;;;;;;;2.03;1.93;;;21.20;99.90;;;;;;6151487;23;20472;-70
2023/08/26 13:34:56;;;;;;;3.50;2.03;;;21.20;99.90;;;;;;6153360;23;20468;-70
2023/08/26 13:37:23;;;;;;;2.10;2.03;;;21.20;99.90;;;;;;6153697;23;20420;-71
2023/08/26 13:39:49;;;;;;;1.97;1.97;;;21.20;99.90;;;;;;6151800;23;20421;-71
2023/08/26 13:42:17;;;;;;;2.03;2.03;;;21.20;99.90;;;;;;6153218;23;20749;-71
2023/08/26 13:44:44;;;;;;;3.50;2.60;;;21.10;99.90;;;;;;6154016;23;20424;-70
2023/08/26 13:47:11;;;;;;;3.40;2.33;;;21.10;99.90;;;;;;6152886;23;20441;-70
2023/08/26 13:49:37;;;;;;;2.57;2.40;;;21.10;99.90;;;;;;6153052;23;20427;-70
2023/08/26 13:52:05;;;;;;;2.30;2.20;;;21.10;99.90;;;;;;6152774;23;20758;-69
2023/08/26 13:54:32;;;;;;;2.70;2.20;;;21.10;99.90;;;;;;6153199;23;20451;-70
2023/08/26 13:57:01;;;;;;;6.30;2.23;;;21.20;99.90;;;;;;6153303;23;20423;-70
2023/08/26 13:59:29;;;;;;;1.37;1.37;;;21.20;99.90;;;;;;6152433;23;20420;-70
2023/08/26 14:01:55;;;;;;;1.80;1.80;;;21.20;99.90;;;;;;6151684;23;20448;-70
2023/08/26 14:04:24;;;;;;;2.10;2.00;;;21.20;99.90;;;;;;6153078;23;20422;-70
2023/08/26 14:06:51;;;;;;;1.70;1.67;;;21.30;99.90;;;;;;6150933;23;20524;-70
2023/08/26 14:09:17;;;;;;;2.17;2.07;;;21.40;99.90;;;;;;6152004;23;20420;-70
2023/08/26 14:11:44;;;;;;;1.43;1.43;;;21.50;99.90;;;;;;6151351;23;20923;-70
2023/08/26 14:14:11;;;;;;;2.57;1.70;;;21.40;99.90;;;;;;6151981;23;20446;-70
2023/08/26 14:16:41;;;;;;;2.23;1.70;;;21.40;99.90;;;;;;6152436;23;20406;-70
2023/08/26 14:19:08;;;;;;;1.63;1.63;;;21.50;99.90;;;;;;6153182;23;20428;-70
2023/08/26 14:21:35;;;;;;;1.50;1.50;;;21.50;99.90;;;;;;6152432;23;20473;-69
2023/08/26 14:24:03;;;;;;;4.50;1.77;;;21.50;99.90;;;;;;6152804;23;20903;-69
2023/08/26 14:26:30;;;;;;;1.60;1.50;;;21.50;99.90;;;;;;6153103;23;20906;-70
2023/08/26 14:28:56;;;;;;;1.10;1.10;;;21.50;99.90;;;;;;6152754;23;20743;-70
2023/08/26 14:31:23;;;;;;;1.50;1.50;;;21.50;99.90;;;;;;6151902;23;20451;-70
2023/08/26 14:33:51;;;;;;;1.50;1.40;;;21.50;99.90;;;;;;6152587;23;20445;-69
2023/08/26 14:36:18;;;;;;;1.30;0.80;;;21.40;99.90;;;;;;6152090;23;20422;-70
2023/08/26 14:38:45;;;;;;;0.80;0.80;;;21.30;99.90;;;;;;6153033;23;20420;-69
2023/08/26 14:41:12;;;;;;;1.17;1.17;;;21.40;99.90;;;;;;6152438;23;20440;-71
2023/08/26 14:43:39;;;;;;;1.10;1.10;;;21.50;99.90;;;;;;6155804;23;20423;-70
2023/08/26 14:46:06;;;;;;;1.20;1.20;;;21.50;99.90;;;;;;6155183;23;20951;-70
2023/08/26 14:48:32;;;;;;;1.47;1.47;;;21.50;99.90;;;;;;6152437;23;20519;-70
2023/08/26 14:51:02;;;;;;;1.80;0.97;;;21.50;99.90;;;;;;6152895;23;20452;-70
2023/08/26 14:53:29;;;;;;;1.57;1.47;;;21.50;99.90;;;;;;6155271;23;20421;-70
2023/08/26 14:55:57;;;;;;;1.50;1.50;;;21.50;99.90;;;;;;6155432;23;20512;-70
2023/08/26 14:58:24;;;;;;;3.50;1.20;;;21.50;99.90;;;;;;6155012;23;20491;-70
2023/08/26 15:00:54;;;;;;;3.67;1.50;;;21.50;99.90;;;;;;6153867;23;20450;-70
2023/08/26 15:03:20;;;;;;;1.40;1.30;;;21.60;99.90;;;;;;6154185;23;20420;-70
2023/08/26 15:05:54;;;;;;;0.97;0.97;;;21.70;99.90;;;;;;6155071;23;20733;-70
2023/08/26 15:08:22;;;;;;;1.20;1.20;;;21.70;99.90;;;;;;6154493;23;20875;-70
2023/08/26 15:10:48;;;;;;;1.10;1.10;;;21.70;99.90;;;;;;6154448;23;20444;-70
2023/08/26 15:13:17;;;;;;;0.90;0.90;;;21.60;99.90;;;;;;6154359;23;20420;-69
2023/08/26 15:15:46;;;;;;;1.20;1.20;;;21.60;99.90;;;;;;6154727;23;20486;-70
2023/08/26 15:18:12;;;;;;;0.93;0.93;;;21.50;99.90;;;;;;6153965;23;20930;-70
2023/08/26 15:20:42;;;;;;;1.07;1.07;;;21.50;99.90;;;;;;6153997;23;20716;-70
2023/08/26 15:23:09;;;;;;;1.67;1.00;;;21.50;99.90;;;;;;6153114;23;20474;-70
2023/08/26 15:25:38;;;;;;;1.07;1.07;;;21.50;99.90;;;;;;6154917;23;20483;-70
2023/08/26 15:28:05;;;;;;;1.70;1.00;;;21.50;99.90;;;;;;6153679;23;20933;-70
2023/08/26 15:30:32;;;;;;;1.63;1.00;;;21.60;99.90;;;;;;6154301;23;20419;-70
2023/08/26 15:33:00;;;;;;;1.00;1.00;;;21.50;99.90;;;;;;6153513;23;20459;-70
2023/08/26 15:35:26;;;;;;;1.10;1.10;;;21.40;99.90;;;;;;6154040;23;20439;-70
2023/08/26 15:37:53;;;;;;;0.87;0.87;;;21.40;99.90;;;;;;6153538;23;20911;-70
2023/08/26 15:40:20;;;;;;;1.10;1.10;;;21.40;99.90;;;;;;6154846;23;20422;-69
2023/08/26 15:42:48;;;;;;;1.43;1.33;;;21.40;99.90;;;;;;6154537;23;20420;-70
2023/08/26 15:45:15;;;;;;;1.70;0.90;;;21.50;99.90;;;;;;6155039;23;20499;-70
2023/08/26 15:47:42;;;;;;;0.90;0.90;;;21.50;99.90;;;;;;6152131;23;20413;-69
2023/08/26 15:50:10;;;;;;;1.30;1.20;;;21.60;99.90;;;;;;6153134;23;20223;-70
2023/08/26 15:52:36;;;;;;;0.93;0.93;;;21.70;99.90;;;;;;6153577;23;20448;-69
2023/08/26 15:55:03;;;;;;;0.70;0.70;;;21.60;99.90;;;;;;6154771;23;20476;-70
2023/08/26 15:57:30;;;;;;;0.60;0.60;;;21.60;99.90;;;;;;6154398;23;20499;-70
2023/08/26 15:59:58;;;;;;;2.40;0.90;;;21.60;99.90;;;;;;6153742;23;20432;-70
2023/08/26 16:02:25;;;;;;;1.17;1.00;;;21.60;99.90;;;;;;6153124;23;20456;-70
2023/08/26 16:04:51;;;;;;;0.80;0.80;;;21.60;99.90;;;;;;6153010;23;20420;-69
2023/08/26 16:07:18;;;;;;;1.00;1.00;;;21.70;99.90;;;;;;6152280;23;20816;-70
2023/08/26 16:09:45;;;;;;;3.60;1.03;;;21.60;99.90;;;;;;6153574;23;20419;-70
2023/08/26 16:12:16;;;;;;;1.00;1.00;;;21.70;99.90;;;;;;6152756;23;20487;-70
2023/08/26 16:14:43;;;;;;;4.23;1.20;;;21.70;99.90;;;;;;6151765;23;20634;-69
2023/08/26 16:17:11;;;;;;;0.97;0.77;;;21.70;99.90;;;;;;6153477;23;20406;-70
2023/08/26 16:19:41;;;;;;;0.57;0.57;;;21.70;99.90;;;;;;6155356;23;20801;-70
2023/08/26 16:22:08;;;;;;;0.97;0.97;;;21.70;99.90;;;;;;6157254;23;20447;-71
2023/08/26 16:24:34;;;;;;;0.67;0.67;;;21.80;99.90;;;;;;6155515;23;20449;-71
2023/08/26 16:27:01;;;;;;;1.37;1.37;;;21.70;99.90;;;;;;6154326;23;20426;-70
2023/08/26 16:29:28;;;;;;;0.90;0.90;;;21.70;99.90;;;;;;6155023;23;20427;-70
2023/08/26 16:31:54;;;;;;;0.90;0.77;;;21.70;99.90;;;;;;6153804;23;20444;-70
2023/08/26 16:34:22;;;;;;;0.70;0.70;;;21.60;99.90;;;;;;6153905;23;20758;-70
2023/08/26 16:36:49;;;;;;;0.90;0.90;;;21.60;99.90;;;;;;6153161;23;20938;-70
2023/08/26 16:39:16;;;;;;;5.90;1.10;;;21.60;99.90;;;;;;6153159;23;20452;-70
2023/08/26 16:41:42;;;;;;;1.00;1.00;;;21.60;99.90;;;;;;6152717;23;21017;-70
2023/08/26 16:44:09;;;;;;;0.90;0.90;;;21.60;99.90;;;;;;6154604;23;20420;-69